Aérodrome :
LOGIN :

S'inscrire | Disclaimer

   EN    FR    IT 

 










Légende :    VFR   VFR Marginal   IFR   IFR Intensif   IFR Très Intensif
Visi : 
Plafond : 
>= 8 km
>= 3000ft
5 à 8 km
1000 à 3000 ft
1500m à 5 km
500 à 1000 ft
800 à 1500m
200 à 500 ft
< 800m
< 200 ft
Symboles :   Orages  Brouillard  Fortes neiges  Fortes précipitations  Vent > 20 kt
SIGMETs :   Divers  Orages  Givrage  Turbulence  Onde Orograph.  Cendres Volcan.






- Altitude de l'aérodrome : 113 ft


EKRS - Ringsted

DERNIER METAR :
  • 271150Z AUTO VRB00KT 9999 BKN012/// BKN015/// OVC023/// 03/03 Q0997

METARs EXPIRÉS :
  • 271120Z AUTO 21004KT 160V260 8000 -RA VV015 03/02 Q0997
  • 271050Z AUTO 20007KT 170V250 9999 SCT013/// BKN016/// OVC041/// 03/02 Q0998
  • 271020Z AUTO 19007KT 140V230 9999 FEW013/// BKN043/// 03/02 Q0998
  • 270950Z AUTO VRB03KT 9999 FEW034/// 02/00 Q0998
  • 270920Z AUTO VRB01KT 9999 SCT016/// BKN035/// 01/00 Q0998

TAF N/A



MET'MAP, la Météo Aéronautique d'un coup d'oeil ! - Copyright ORBIFLY Décembre 2007 - Disclaimer

ORBIFLY MET'MAP TEAM :

Programmation & Développement : Alexandra Zaïnal
Sur une idée originale de : Baudouin d'Aumeries
Assistance à la programmation : Marc-Olivier Méhu
Soutien technique & logistique : Manuel Goepfert

Contact : metmap@orbifly.com




SOURCES & CREDITS :

   NOAA